sensor_id;sensor_type;location;lat;lon;timestamp;pressure;altitude;pressure_sealevel;temperature;humidity
43621;BME280;29213;50.770;7.298;2023-05-08T00:00:32;101186.81;;;13.43;69.68
43621;BME280;29213;50.770;7.298;2023-05-08T00:02:57;100979.75;;;12.12;69.67
43621;BME280;29213;50.770;7.298;2023-05-08T00:05:23;101196.69;;;13.42;69.48
43621;BME280;29213;50.770;7.298;2023-05-08T00:07:48;101174.78;;;13.22;69.71
43621;BME280;29213;50.770;7.298;2023-05-08T00:10:16;101266.91;;;13.77;69.56
43621;BME280;29213;50.770;7.298;2023-05-08T00:12:42;101092.84;;;12.71;69.43
43621;BME280;29213;50.770;7.298;2023-05-08T00:15:08;101211.72;;;13.52;69.47
43621;BME280;29213;50.770;7.298;2023-05-08T00:17:33;101182.81;;;13.22;69.45
43621;BME280;29213;50.770;7.298;2023-05-08T00:19:59;101253.50;;;13.69;69.51
43621;BME280;29213;50.770;7.298;2023-05-08T00:22:24;101240.47;;;13.58;69.45
43621;BME280;29213;50.770;7.298;2023-05-08T00:24:50;101205.53;;;13.34;69.36
43621;BME280;29213;50.770;7.298;2023-05-08T00:27:15;101247.53;;;13.59;69.59
43621;BME280;29213;50.770;7.298;2023-05-08T00:29:41;101231.44;;;13.50;69.42
43621;BME280;29213;50.770;7.298;2023-05-08T00:32:07;101278.28;;;13.71;69.39
43621;BME280;29213;50.770;7.298;2023-05-08T00:34:32;101170.72;;;13.01;69.28
43621;BME280;29213;50.770;7.298;2023-05-08T00:36:58;101207.22;;;13.19;69.33
43621;BME280;29213;50.770;7.298;2023-05-08T00:39:23;101253.72;;;13.51;69.30
43621;BME280;29213;50.770;7.298;2023-05-08T00:41:49;101272.59;;;13.58;69.45
43621;BME280;29213;50.770;7.298;2023-05-08T00:44:15;101240.97;;;13.36;69.50
43621;BME280;29213;50.770;7.298;2023-05-08T00:46:41;101264.75;;;13.56;69.37
43621;BME280;29213;50.770;7.298;2023-05-08T00:49:07;101063.06;;;12.24;69.28
43621;BME280;29213;50.770;7.298;2023-05-08T00:51:34;101165.88;;;12.88;69.48
43621;BME280;29213;50.770;7.298;2023-05-08T00:54:00;101184.06;;;12.93;69.50
43621;BME280;29213;50.770;7.298;2023-05-08T00:56:26;101202.84;;;13.09;69.42
43621;BME280;29213;50.770;7.298;2023-05-08T00:58:52;101289.16;;;13.61;69.56
43621;BME280;29213;50.770;7.298;2023-05-08T01:01:18;101261.88;;;13.41;69.47
43621;BME280;29213;50.770;7.298;2023-05-08T01:03:43;101282.28;;;13.50;69.58
43621;BME280;29213;50.770;7.298;2023-05-08T01:06:09;101166.53;;;12.82;69.60
43621;BME280;29213;50.770;7.298;2023-05-08T01:08:35;101182.75;;;12.89;69.70
43621;BME280;29213;50.770;7.298;2023-05-08T01:11:22;101213.19;;;13.04;69.62
43621;BME280;29213;50.770;7.298;2023-05-08T01:14:14;101293.00;;;13.59;69.61
43621;BME280;29213;50.770;7.298;2023-05-08T01:16:57;101267.22;;;13.41;69.34
43621;BME280;29213;50.770;7.298;2023-05-08T01:31:28;101303.84;;;13.49;69.60
43621;BME280;29213;50.770;7.298;2023-05-08T01:34:05;101283.09;;;13.26;69.84
43621;BME280;29213;50.770;7.298;2023-05-08T01:36:40;101240.94;;;13.03;69.77
43621;BME280;29213;50.770;7.298;2023-05-08T01:39:29;101271.75;;;13.24;69.77
43621;BME280;29213;50.770;7.298;2023-05-08T01:42:09;101301.03;;;13.42;69.75
43621;BME280;29213;50.770;7.298;2023-05-08T01:44:43;101212.13;;;12.80;69.83
43621;BME280;29213;50.770;7.298;2023-05-08T01:47:10;101277.25;;;13.14;69.74
43621;BME280;29213;50.770;7.298;2023-05-08T01:49:43;101302.00;;;13.33;69.68
43621;BME280;29213;50.770;7.298;2023-05-08T01:52:14;101098.19;;;12.03;69.84
43621;BME280;29213;50.770;7.298;2023-05-08T01:54:47;101252.75;;;13.01;69.83
43621;BME280;29213;50.770;7.298;2023-05-08T01:57:15;101255.78;;;12.98;69.84
43621;BME280;29213;50.770;7.298;2023-05-08T01:59:43;101306.34;;;13.34;70.08
43621;BME280;29213;50.770;7.298;2023-05-08T02:02:10;101202.59;;;12.69;70.02
43621;BME280;29213;50.770;7.298;2023-05-08T02:04:38;101253.94;;;12.98;70.02
43621;BME280;29213;50.770;7.298;2023-05-08T02:07:06;101309.53;;;13.29;70.09
43621;BME280;29213;50.770;7.298;2023-05-08T02:09:32;101253.13;;;12.98;70.18
43621;BME280;29213;50.770;7.298;2023-05-08T02:11:59;101294.09;;;13.15;70.13
43621;BME280;29213;50.770;7.298;2023-05-08T02:14:25;101018.41;;;11.48;70.24
43621;BME280;29213;50.770;7.298;2023-05-08T02:16:53;101161.06;;;12.32;70.33
43621;BME280;29213;50.770;7.298;2023-05-08T02:19:22;101311.00;;;13.23;70.38
43621;BME280;29213;50.770;7.298;2023-05-08T02:21:49;101099.84;;;11.96;70.37
43621;BME280;29213;50.770;7.298;2023-05-08T02:24:16;101323.41;;;13.33;70.49
43621;BME280;29213;50.770;7.298;2023-05-08T02:26:43;101227.31;;;12.72;70.53
43621;BME280;29213;50.770;7.298;2023-05-08T02:29:10;101319.53;;;13.27;70.86
43621;BME280;29213;50.770;7.298;2023-05-08T02:31:36;101307.63;;;13.13;70.81
43621;BME280;29213;50.770;7.298;2023-05-08T02:34:03;101249.38;;;12.82;71.00
43621;BME280;29213;50.770;7.298;2023-05-08T02:36:29;101310.31;;;13.13;70.54
43621;BME280;29213;50.770;7.298;2023-05-08T02:38:56;101150.97;;;12.17;70.72
43621;BME280;29213;50.770;7.298;2023-05-08T02:41:25;101318.88;;;13.17;70.94
43621;BME280;29213;50.770;7.298;2023-05-08T02:43:52;101300.53;;;12.87;71.20
43621;BME280;29213;50.770;7.298;2023-05-08T02:49:06;101245.78;;;12.56;70.83
43621;BME280;29213;50.770;7.298;2023-05-08T02:51:49;101297.50;;;12.82;71.08
43621;BME280;29213;50.770;7.298;2023-05-08T02:59:41;101306.53;;;12.81;71.76
43621;BME280;29213;50.770;7.298;2023-05-08T03:02:14;101246.91;;;12.46;71.12
43621;BME280;29213;50.770;7.298;2023-05-08T03:04:48;101306.97;;;12.68;71.41
43621;BME280;29213;50.770;7.298;2023-05-08T03:07:15;101310.44;;;12.60;71.70
43621;BME280;29213;50.770;7.298;2023-05-08T03:09:46;101272.91;;;12.35;71.49
43621;BME280;29213;50.770;7.298;2023-05-08T03:12:21;101323.94;;;12.59;71.56
43621;BME280;29213;50.770;7.298;2023-05-08T03:15:05;101277.53;;;12.25;71.31
43621;BME280;29213;50.770;7.298;2023-05-08T03:17:32;101301.03;;;12.48;71.24
43621;BME280;29213;50.770;7.298;2023-05-08T03:20:03;101334.34;;;12.70;71.13
43621;BME280;29213;50.770;7.298;2023-05-08T03:22:33;101320.97;;;12.62;71.19
43621;BME280;29213;50.770;7.298;2023-05-08T03:25:01;101336.38;;;12.76;70.83
43621;BME280;29213;50.770;7.298;2023-05-08T03:27:29;101331.53;;;12.72;70.59
43621;BME280;29213;50.770;7.298;2023-05-08T03:29:56;101257.06;;;12.34;70.46
43621;BME280;29213;50.770;7.298;2023-05-08T03:32:25;101296.03;;;12.53;70.44
43621;BME280;29213;50.770;7.298;2023-05-08T03:34:53;101282.97;;;12.41;70.35
43621;BME280;29213;50.770;7.298;2023-05-08T03:37:19;101344.41;;;12.76;70.46
43621;BME280;29213;50.770;7.298;2023-05-08T03:39:45;101288.50;;;12.48;70.31
43621;BME280;29213;50.770;7.298;2023-05-08T03:42:11;101275.41;;;12.37;70.52
43621;BME280;29213;50.770;7.298;2023-05-08T03:44:47;101282.13;;;12.41;70.35
43621;BME280;29213;50.770;7.298;2023-05-08T03:47:16;101254.13;;;12.19;70.28
43621;BME280;29213;50.770;7.298;2023-05-08T03:49:41;101282.97;;;12.41;70.21
43621;BME280;29213;50.770;7.298;2023-05-08T03:52:11;101313.97;;;12.61;70.37
43621;BME280;29213;50.770;7.298;2023-05-08T03:54:36;101320.13;;;12.61;70.37
43621;BME280;29213;50.770;7.298;2023-05-08T03:57:02;101222.16;;;12.00;70.53
43621;BME280;29213;50.770;7.298;2023-05-08T03:59:55;101340.75;;;12.77;70.92
43621;BME280;29213;50.770;7.298;2023-05-08T04:02:31;101291.94;;;12.40;70.55
43621;BME280;29213;50.770;7.298;2023-05-08T04:05:10;101347.41;;;12.73;70.60
43621;BME280;29213;50.770;7.298;2023-05-08T04:10:49;101350.91;;;12.74;70.27
43621;BME280;29213;50.770;7.298;2023-05-08T04:13:19;101254.13;;;12.19;70.18
43621;BME280;29213;50.770;7.298;2023-05-08T04:15:51;101290.41;;;12.29;70.94
43621;BME280;29213;50.770;7.298;2023-05-08T04:18:24;101292.94;;;12.31;70.26
43621;BME280;29213;50.770;7.298;2023-05-08T04:20:53;101342.72;;;12.67;70.17
43621;BME280;29213;50.770;7.298;2023-05-08T04:23:21;101323.22;;;12.48;70.18
43621;BME280;29213;50.770;7.298;2023-05-08T04:25:48;101274.50;;;12.20;70.22
43621;BME280;29213;50.770;7.298;2023-05-08T04:28:16;101236.94;;;11.95;69.86
43621;BME280;29213;50.770;7.298;2023-05-08T04:30:42;101248.47;;;11.95;69.83
43621;BME280;29213;50.770;7.298;2023-05-08T04:33:08;101275.44;;;12.10;69.97
43621;BME280;29213;50.770;7.298;2023-05-08T04:35:34;101195.63;;;11.54;69.96
43621;BME280;29213;50.770;7.298;2023-05-08T04:38:01;101339.88;;;12.42;69.98
43621;BME280;29213;50.770;7.298;2023-05-08T04:40:26;101276.69;;;11.98;70.16
43621;BME280;29213;50.770;7.298;2023-05-08T04:42:52;101295.13;;;12.09;70.29
43621;BME280;29213;50.770;7.298;2023-05-08T04:45:17;101359.81;;;12.48;70.11
43621;BME280;29213;50.770;7.298;2023-05-08T04:47:43;101210.25;;;11.50;70.37
43621;BME280;29213;50.770;7.298;2023-05-08T04:50:08;101279.84;;;11.93;70.02
43621;BME280;29213;50.770;7.298;2023-05-08T04:52:34;100966.25;;;9.94;69.80
43621;BME280;29213;50.770;7.298;2023-05-08T04:54:59;101287.97;;;11.92;70.16
43621;BME280;29213;50.770;7.298;2023-05-08T04:57:25;101362.94;;;12.43;69.96
43621;BME280;29213;50.770;7.298;2023-05-08T04:59:50;101322.13;;;12.06;71.86
43621;BME280;29213;50.770;7.298;2023-05-08T05:02:16;101264.69;;;11.57;71.15
43621;BME280;29213;50.770;7.298;2023-05-08T05:04:42;101352.25;;;12.16;70.42
43621;BME280;29213;50.770;7.298;2023-05-08T05:07:07;101369.06;;;12.35;70.08
43621;BME280;29213;50.770;7.298;2023-05-08T05:09:32;101296.59;;;11.85;70.19
43621;BME280;29213;50.770;7.298;2023-05-08T05:12:02;101126.91;;;10.85;70.08
43621;BME280;29213;50.770;7.298;2023-05-08T05:14:28;101263.91;;;11.65;69.74
43621;BME280;29213;50.770;7.298;2023-05-08T05:16:54;101314.66;;;11.92;70.08
43621;BME280;29213;50.770;7.298;2023-05-08T05:19:19;101303.16;;;11.73;70.08
43621;BME280;29213;50.770;7.298;2023-05-08T05:21:45;101344.25;;;11.98;70.30
43621;BME280;29213;50.770;7.298;2023-05-08T05:24:10;101351.28;;;11.99;69.98
43621;BME280;29213;50.770;7.298;2023-05-08T05:26:35;101317.03;;;11.76;70.38
43621;BME280;29213;50.770;7.298;2023-05-08T05:29:01;101256.59;;;11.31;70.21
43621;BME280;29213;50.770;7.298;2023-05-08T05:31:27;101365.16;;;12.03;70.34
43621;BME280;29213;50.770;7.298;2023-05-08T05:33:53;101280.13;;;11.54;70.13
43621;BME280;29213;50.770;7.298;2023-05-08T05:36:19;101354.69;;;11.92;70.19
43621;BME280;29213;50.770;7.298;2023-05-08T05:38:44;101344.03;;;11.73;69.96
43621;BME280;29213;50.770;7.298;2023-05-08T05:41:10;101349.28;;;11.83;70.16
43621;BME280;29213;50.770;7.298;2023-05-08T05:43:35;101341.50;;;11.72;70.29
43621;BME280;29213;50.770;7.298;2023-05-08T05:46:08;101336.25;;;11.62;70.09
43621;BME280;29213;50.770;7.298;2023-05-08T05:48:34;101358.88;;;11.76;70.24
43621;BME280;29213;50.770;7.298;2023-05-08T05:50:59;101397.88;;;12.05;70.15
43621;BME280;29213;50.770;7.298;2023-05-08T05:53:25;101292.88;;;11.42;70.23
43621;BME280;29213;50.770;7.298;2023-05-08T05:55:50;101324.72;;;11.61;70.17
43621;BME280;29213;50.770;7.298;2023-05-08T05:58:17;101378.88;;;11.90;70.20
43621;BME280;29213;50.770;7.298;2023-05-08T06:00:42;101219.56;;;10.91;69.88
43621;BME280;29213;50.770;7.298;2023-05-08T06:03:08;101379.34;;;11.85;70.13
43621;BME280;29213;50.770;7.298;2023-05-08T06:05:35;101349.66;;;11.70;70.49
43621;BME280;29213;50.770;7.298;2023-05-08T06:08:00;101376.88;;;11.92;70.22
43621;BME280;29213;50.770;7.298;2023-05-08T06:10:26;101326.09;;;11.66;70.15
43621;BME280;29213;50.770;7.298;2023-05-08T06:12:51;101348.13;;;11.68;69.76
43621;BME280;29213;50.770;7.298;2023-05-08T06:15:17;101357.44;;;11.82;69.92
43621;BME280;29213;50.770;7.298;2023-05-08T06:17:43;101367.34;;;11.89;70.08
43621;BME280;29213;50.770;7.298;2023-05-08T06:20:08;101251.50;;;11.19;69.72
43621;BME280;29213;50.770;7.298;2023-05-08T06:22:34;101360.47;;;11.87;69.79
43621;BME280;29213;50.770;7.298;2023-05-08T06:25:02;101412.59;;;12.27;70.09
43621;BME280;29213;50.770;7.298;2023-05-08T06:27:27;101346.59;;;11.83;70.04
43621;BME280;29213;50.770;7.298;2023-05-08T06:29:53;101419.13;;;12.33;69.91
43621;BME280;29213;50.770;7.298;2023-05-08T06:32:19;101312.75;;;11.66;69.92
43621;BME280;29213;50.770;7.298;2023-05-08T06:34:45;101300.81;;;11.70;69.81
43621;BME280;29213;50.770;7.298;2023-05-08T06:37:10;101177.16;;;10.98;69.57
43621;BME280;29213;50.770;7.298;2023-05-08T06:39:35;101338.75;;;12.00;70.02
43621;BME280;29213;50.770;7.298;2023-05-08T06:42:01;101417.47;;;12.59;70.08
43621;BME280;29213;50.770;7.298;2023-05-08T06:44:27;101386.56;;;12.29;69.25
43621;BME280;29213;50.770;7.298;2023-05-08T06:46:53;101383.97;;;12.38;69.71
43621;BME280;29213;50.770;7.298;2023-05-08T06:49:19;101351.72;;;12.13;68.79
43621;BME280;29213;50.770;7.298;2023-05-08T06:51:45;101311.53;;;11.78;69.56
43621;BME280;29213;50.770;7.298;2023-05-08T06:54:10;101367.31;;;11.99;69.40
43621;BME280;29213;50.770;7.298;2023-05-08T06:56:36;101396.34;;;12.21;68.87
43621;BME280;29213;50.770;7.298;2023-05-08T06:59:01;101367.97;;;12.01;69.23
43621;BME280;29213;50.770;7.298;2023-05-08T07:01:28;101415.69;;;12.41;69.31
43621;BME280;29213;50.770;7.298;2023-05-08T07:03:53;101312.22;;;11.80;68.98
43621;BME280;29213;50.770;7.298;2023-05-08T07:06:18;101413.25;;;12.29;68.89
43621;BME280;29213;50.770;7.298;2023-05-08T07:08:44;101355.50;;;11.92;69.32
43621;BME280;29213;50.770;7.298;2023-05-08T07:11:09;101379.47;;;12.20;69.40
43621;BME280;29213;50.770;7.298;2023-05-08T07:13:35;101387.47;;;12.20;69.38
43621;BME280;29213;50.770;7.298;2023-05-08T07:16:01;101419.22;;;12.41;69.36
43621;BME280;29213;50.770;7.298;2023-05-08T07:18:26;101340.66;;;11.89;69.11
43621;BME280;29213;50.770;7.298;2023-05-08T07:20:52;101275.03;;;11.60;69.57
43621;BME280;29213;50.770;7.298;2023-05-08T07:23:17;101325.06;;;11.76;69.34
43621;BME280;29213;50.770;7.298;2023-05-08T07:25:43;101409.31;;;12.15;69.97
43621;BME280;29213;50.770;7.298;2023-05-08T07:28:08;101367.59;;;11.96;69.66
43621;BME280;29213;50.770;7.298;2023-05-08T07:30:34;101373.81;;;11.87;69.99
43621;BME280;29213;50.770;7.298;2023-05-08T07:33:00;101267.50;;;11.19;70.48
43621;BME280;29213;50.770;7.298;2023-05-08T07:35:25;101417.47;;;12.14;70.78
43621;BME280;29213;50.770;7.298;2023-05-08T07:37:50;101422.91;;;12.22;70.85
43621;BME280;29213;50.770;7.298;2023-05-08T07:40:16;101398.72;;;12.06;70.68
43621;BME280;29213;50.770;7.298;2023-05-08T07:42:43;101425.47;;;12.32;70.88
43621;BME280;29213;50.770;7.298;2023-05-08T07:45:09;101344.56;;;11.77;70.84
43621;BME280;29213;50.770;7.298;2023-05-08T07:47:35;101397.88;;;12.05;71.40
43621;BME280;29213;50.770;7.298;2023-05-08T07:50:01;101330.06;;;11.80;71.37
43621;BME280;29213;50.770;7.298;2023-05-08T07:52:26;101346.31;;;11.86;71.25
43621;BME280;29213;50.770;7.298;2023-05-08T07:54:52;101401.44;;;12.14;72.38
43621;BME280;29213;50.770;7.298;2023-05-08T07:57:17;101389.09;;;12.13;71.61
43621;BME280;29213;50.770;7.298;2023-05-08T07:59:42;101422.50;;;12.35;71.65
43621;BME280;29213;50.770;7.298;2023-05-08T08:02:08;101434.16;;;12.34;71.76
43621;BME280;29213;50.770;7.298;2023-05-08T08:04:33;101428.03;;;12.42;71.80
43621;BME280;29213;50.770;7.298;2023-05-08T08:06:59;101302.09;;;11.66;71.28
43621;BME280;29213;50.770;7.298;2023-05-08T08:09:24;101429.25;;;12.48;71.00
43621;BME280;29213;50.770;7.298;2023-05-08T08:11:49;101388.06;;;12.32;70.91
43621;BME280;29213;50.770;7.298;2023-05-08T08:14:15;101355.16;;;12.05;70.80
43621;BME280;29213;50.770;7.298;2023-05-08T08:16:40;101419.34;;;12.40;70.99
43621;BME280;29213;50.770;7.298;2023-05-08T08:19:07;101392.03;;;12.28;71.27
43621;BME280;29213;50.770;7.298;2023-05-08T08:21:32;101349.28;;;12.01;71.06
43621;BME280;29213;50.770;7.298;2023-05-08T08:23:58;101325.97;;;11.85;70.85
43621;BME280;29213;50.770;7.298;2023-05-08T08:26:24;101404.09;;;12.32;71.27
43621;BME280;29213;50.770;7.298;2023-05-08T08:28:49;101409.28;;;12.34;71.14
43621;BME280;29213;50.770;7.298;2023-05-08T08:31:15;101378.16;;;12.24;70.77
43621;BME280;29213;50.770;7.298;2023-05-08T08:33:42;101357.53;;;12.08;70.82
43621;BME280;29213;50.770;7.298;2023-05-08T08:36:14;101450.13;;;12.70;70.75
43621;BME280;29213;50.770;7.298;2023-05-08T08:38:40;101391.97;;;12.38;70.86
43621;BME280;29213;50.770;7.298;2023-05-08T08:41:06;101380.66;;;12.44;70.70
43621;BME280;29213;50.770;7.298;2023-05-08T08:43:32;101378.06;;;12.34;70.48
43621;BME280;29213;50.770;7.298;2023-05-08T08:45:57;101411.22;;;12.76;70.16
43621;BME280;29213;50.770;7.298;2023-05-08T08:48:27;101440.66;;;13.03;70.23
43621;BME280;29213;50.770;7.298;2023-05-08T08:50:58;101442.00;;;13.07;70.42
43621;BME280;29213;50.770;7.298;2023-05-08T08:53:31;101438.88;;;13.12;70.09
43621;BME280;29213;50.770;7.298;2023-05-08T08:55:59;101451.59;;;13.18;70.07
43621;BME280;29213;50.770;7.298;2023-05-08T08:58:37;101404.00;;;12.95;70.10
43621;BME280;29213;50.770;7.298;2023-05-08T09:01:08;101427.41;;;13.01;70.00
43621;BME280;29213;50.770;7.298;2023-05-08T09:03:37;101374.94;;;12.65;70.20
43621;BME280;29213;50.770;7.298;2023-05-08T09:06:03;101275.75;;;12.07;70.06
43621;BME280;29213;50.770;7.298;2023-05-08T09:08:29;101432.50;;;13.13;69.73
43621;BME280;29213;50.770;7.298;2023-05-08T09:10:55;101379.50;;;12.81;69.37
43621;BME280;29213;50.770;7.298;2023-05-08T09:13:21;101212.41;;;11.73;69.51
43621;BME280;29213;50.770;7.298;2023-05-08T09:15:47;101444.94;;;13.22;69.35
43621;BME280;29213;50.770;7.298;2023-05-08T09:18:14;101385.91;;;12.89;69.12
43621;BME280;29213;50.770;7.298;2023-05-08T09:20:39;101448.59;;;13.21;69.42
43621;BME280;29213;50.770;7.298;2023-05-08T09:23:05;101450.28;;;13.22;69.31
43621;BME280;29213;50.770;7.298;2023-05-08T09:25:51;101381.63;;;12.69;69.58
43621;BME280;29213;50.770;7.298;2023-05-08T09:28:22;101388.44;;;12.64;69.50
43621;BME280;29213;50.770;7.298;2023-05-08T09:30:52;101446.69;;;13.13;69.61
43621;BME280;29213;50.770;7.298;2023-05-08T09:33:20;101402.25;;;12.86;69.52
43621;BME280;29213;50.770;7.298;2023-05-08T09:35:46;101385.63;;;12.65;70.01
43621;BME280;29213;50.770;7.298;2023-05-08T09:38:32;101448.34;;;13.06;70.00
43621;BME280;29213;50.770;7.298;2023-05-08T09:41:16;101373.19;;;12.56;69.72
43621;BME280;29213;50.770;7.298;2023-05-08T09:43:43;101448.88;;;13.09;70.09
43621;BME280;29213;50.770;7.298;2023-05-08T09:46:19;101420.47;;;12.82;70.20
43621;BME280;29213;50.770;7.298;2023-05-08T09:48:46;101343.19;;;12.36;70.15
43621;BME280;29213;50.770;7.298;2023-05-08T09:51:12;101292.84;;;11.96;70.28
43621;BME280;29213;50.770;7.298;2023-05-08T09:53:38;101398.97;;;12.65;69.93
43621;BME280;29213;50.770;7.298;2023-05-08T09:56:03;101443.66;;;12.81;70.50
43621;BME280;29213;50.770;7.298;2023-05-08T09:58:43;101462.81;;;12.95;70.52
43621;BME280;29213;50.770;7.298;2023-05-08T10:01:28;101462.06;;;13.03;70.08
43621;BME280;29213;50.770;7.298;2023-05-08T10:03:54;101462.72;;;13.05;69.82
43621;BME280;29213;50.770;7.298;2023-05-08T10:06:19;101444.09;;;12.95;69.82
43621;BME280;29213;50.770;7.298;2023-05-08T10:08:45;101439.06;;;12.92;69.98
43621;BME280;29213;50.770;7.298;2023-05-08T10:11:17;101434.97;;;12.79;69.91
43621;BME280;29213;50.770;7.298;2023-05-08T10:13:44;101429.66;;;12.88;69.80
43621;BME280;29213;50.770;7.298;2023-05-08T10:16:13;101390.63;;;12.68;69.67
43621;BME280;29213;50.770;7.298;2023-05-08T10:18:45;101403.41;;;12.83;69.55
43621;BME280;29213;50.770;7.298;2023-05-08T10:21:12;101458.97;;;13.24;69.44
43621;BME280;29213;50.770;7.298;2023-05-08T10:23:38;101223.16;;;11.81;69.43
43621;BME280;29213;50.770;7.298;2023-05-08T10:26:10;101465.19;;;13.33;69.26
43621;BME280;29213;50.770;7.298;2023-05-08T10:28:55;101433.50;;;13.12;69.29
43621;BME280;29213;50.770;7.298;2023-05-08T10:31:24;101423.28;;;13.07;69.34
43621;BME280;29213;50.770;7.298;2023-05-08T10:33:53;101437.72;;;13.14;69.38
43621;BME280;29213;50.770;7.298;2023-05-08T10:36:20;101457.94;;;13.17;69.80
43621;BME280;29213;50.770;7.298;2023-05-08T10:38:46;101412.09;;;12.85;69.65
43621;BME280;29213;50.770;7.298;2023-05-08T10:41:12;101468.50;;;13.27;69.64
43621;BME280;29213;50.770;7.298;2023-05-08T10:43:41;101404.28;;;12.83;69.14
43621;BME280;29213;50.770;7.298;2023-05-08T10:46:44;101403.00;;;12.96;69.16
43621;BME280;29213;50.770;7.298;2023-05-08T10:52:08;101454.06;;;13.54;69.12
43621;BME280;29213;50.770;7.298;2023-05-08T10:57:28;101299.78;;;12.68;69.21
43621;BME280;29213;50.770;7.298;2023-05-08T10:59:54;101414.72;;;13.46;69.21
43621;BME280;29213;50.770;7.298;2023-05-08T11:02:27;101400.69;;;13.36;69.44
43621;BME280;29213;50.770;7.298;2023-05-08T11:05:16;101449.91;;;13.68;69.18
43621;BME280;29213;50.770;7.298;2023-05-08T11:07:58;101340.72;;;13.12;69.27
43621;BME280;29213;50.770;7.298;2023-05-08T11:10:30;101284.28;;;12.80;69.53
43621;BME280;29213;50.770;7.298;2023-05-08T11:12:56;101434.03;;;13.83;69.69
43621;BME280;29213;50.770;7.298;2023-05-08T11:15:37;101436.91;;;13.90;69.53
43621;BME280;29213;50.770;7.298;2023-05-08T11:18:05;101435.41;;;13.87;69.23
43621;BME280;29213;50.770;7.298;2023-05-08T11:21:03;101333.91;;;13.26;69.53
43621;BME280;29213;50.770;7.298;2023-05-08T11:23:33;101432.09;;;14.02;69.81
43621;BME280;29213;50.770;7.298;2023-05-08T11:26:04;101417.16;;;13.91;69.79
43621;BME280;29213;50.770;7.298;2023-05-08T11:28:31;101412.84;;;14.07;69.76
43621;BME280;29213;50.770;7.298;2023-05-08T11:31:01;101423.41;;;14.08;69.58
43621;BME280;29213;50.770;7.298;2023-05-08T11:33:34;101431.78;;;14.13;69.40
43621;BME280;29213;50.770;7.298;2023-05-08T11:38:33;101311.75;;;13.59;68.40
43621;BME280;29213;50.770;7.298;2023-05-08T11:48:28;101416.69;;;14.54;67.98
43621;BME280;29213;50.770;7.298;2023-05-08T11:50:54;101390.72;;;14.46;67.96
43621;BME280;29213;50.770;7.298;2023-05-08T11:53:20;101334.00;;;14.18;67.93
43621;BME280;29213;50.770;7.298;2023-05-08T11:55:49;101391.88;;;14.68;68.28
43621;BME280;29213;50.770;7.298;2023-05-08T11:58:16;101403.53;;;14.84;67.96
43621;BME280;29213;50.770;7.298;2023-05-08T12:00:43;101403.34;;;14.86;67.50
43621;BME280;29213;50.770;7.298;2023-05-08T12:03:19;101401.47;;;14.94;67.46
43621;BME280;29213;50.770;7.298;2023-05-08T12:05:46;101404.66;;;15.06;67.11
43621;BME280;29213;50.770;7.298;2023-05-08T12:08:13;101360.81;;;14.82;66.75
43621;BME280;29213;50.770;7.298;2023-05-08T12:13:29;101363.91;;;15.11;65.96
43621;BME280;29213;50.770;7.298;2023-05-08T12:15:56;101386.38;;;15.42;66.26
43621;BME280;29213;50.770;7.298;2023-05-08T12:18:23;101363.06;;;15.42;65.48
43621;BME280;29213;50.770;7.298;2023-05-08T12:20:56;101387.13;;;15.59;64.71
43621;BME280;29213;50.770;7.298;2023-05-08T12:23:24;101388.47;;;15.55;64.06
43621;BME280;29213;50.770;7.298;2023-05-08T12:25:53;101356.69;;;15.43;63.93
43621;BME280;29213;50.770;7.298;2023-05-08T12:28:19;101313.84;;;15.27;64.07
43621;BME280;29213;50.770;7.298;2023-05-08T12:30:45;101209.19;;;14.72;65.10
43621;BME280;29213;50.770;7.298;2023-05-08T12:33:11;101346.41;;;15.47;63.69
43621;BME280;29213;50.770;7.298;2023-05-08T12:35:37;101280.69;;;15.19;64.10
43621;BME280;29213;50.770;7.298;2023-05-08T12:38:05;101410.78;;;16.10;63.85
43621;BME280;29213;50.770;7.298;2023-05-08T12:40:33;101196.88;;;14.86;61.96
43621;BME280;29213;50.770;7.298;2023-05-08T12:43:02;101043.16;;;13.92;63.18
43621;BME280;29213;50.770;7.298;2023-05-08T12:45:37;101392.00;;;16.25;61.77
43621;BME280;29213;50.770;7.298;2023-05-08T12:48:05;101297.09;;;15.71;63.32
43621;BME280;29213;50.770;7.298;2023-05-08T12:50:35;101076.38;;;14.46;62.18
43621;BME280;29213;50.770;7.298;2023-05-08T12:53:06;101382.31;;;16.69;62.92
43621;BME280;29213;50.770;7.298;2023-05-08T12:55:34;101389.63;;;16.61;60.84
43621;BME280;29213;50.770;7.298;2023-05-08T12:58:04;101343.72;;;16.32;60.32
43621;BME280;29213;50.770;7.298;2023-05-08T13:00:41;101388.16;;;16.43;59.23
43621;BME280;29213;50.770;7.298;2023-05-08T13:03:08;101253.06;;;15.57;58.33
43621;BME280;29213;50.770;7.298;2023-05-08T13:05:35;101253.28;;;15.71;59.48
43621;BME280;29213;50.770;7.298;2023-05-08T13:08:03;101375.16;;;16.62;58.02
43621;BME280;29213;50.770;7.298;2023-05-08T13:13:14;101292.13;;;16.37;59.79
43621;BME280;29213;50.770;7.298;2023-05-08T13:15:40;101342.72;;;16.78;59.17
43621;BME280;29213;50.770;7.298;2023-05-08T13:18:05;101339.22;;;16.93;57.40
43621;BME280;29213;50.770;7.298;2023-05-08T13:20:33;101343.78;;;17.14;58.84
43621;BME280;29213;50.770;7.298;2023-05-08T13:22:58;101336.25;;;17.25;59.41
43621;BME280;29213;50.770;7.298;2023-05-08T13:25:23;101346.91;;;17.55;58.05
43621;BME280;29213;50.770;7.298;2023-05-08T13:27:49;101292.28;;;17.17;56.74
43621;BME280;29213;50.770;7.298;2023-05-08T13:30:15;101311.50;;;17.36;58.08
43621;BME280;29213;50.770;7.298;2023-05-08T13:32:40;101302.72;;;17.27;56.82
43621;BME280;29213;50.770;7.298;2023-05-08T13:35:06;101328.31;;;17.38;56.95
43621;BME280;29213;50.770;7.298;2023-05-08T13:37:31;101322.09;;;17.38;56.92
43621;BME280;29213;50.770;7.298;2023-05-08T13:39:57;101329.50;;;17.35;56.94